createdAt,value
2022-07-30T00:00:34.546Z,16.90
2022-07-30T00:03:02.397Z,16.90
2022-07-30T00:05:29.969Z,16.80
2022-07-30T00:07:57.556Z,16.70
2022-07-30T00:10:25.100Z,16.80
2022-07-30T00:12:52.862Z,16.70
2022-07-30T00:15:20.373Z,16.70
2022-07-30T00:17:49.129Z,16.70
2022-07-30T00:20:18.501Z,16.60
2022-07-30T00:22:46.464Z,16.60
2022-07-30T00:25:14.045Z,16.50
2022-07-30T00:27:41.803Z,16.50
2022-07-30T00:30:09.518Z,16.40
2022-07-30T00:32:37.091Z,16.40
2022-07-30T00:35:04.819Z,16.40
2022-07-30T00:37:32.602Z,16.30
2022-07-30T00:40:00.475Z,16.40
2022-07-30T00:42:57.558Z,16.40
2022-07-30T00:45:25.461Z,16.40
2022-07-30T00:47:53.025Z,16.40
2022-07-30T00:50:20.690Z,16.30
2022-07-30T00:52:49.083Z,16.30
2022-07-30T00:55:16.966Z,16.30
2022-07-30T00:57:44.916Z,16.30
2022-07-30T01:00:15.013Z,16.20
2022-07-30T01:02:42.921Z,16.20
2022-07-30T01:05:11.053Z,16.10
2022-07-30T01:07:38.852Z,16.10
2022-07-30T01:10:07.782Z,16.10
2022-07-30T01:12:36.172Z,16.10
2022-07-30T01:15:05.642Z,16.00
2022-07-30T01:17:33.942Z,16.10
2022-07-30T01:20:27.991Z,16.00
2022-07-30T01:23:02.903Z,16.00
2022-07-30T01:25:39.665Z,16.00
2022-07-30T01:28:11.855Z,16.00
2022-07-30T01:30:41.220Z,16.00
2022-07-30T01:33:11.702Z,16.00
2022-07-30T01:35:40.609Z,16.10
2022-07-30T01:38:10.124Z,16.10
2022-07-30T01:40:38.757Z,16.10
2022-07-30T01:43:08.315Z,16.20
2022-07-30T01:45:42.314Z,16.20
2022-07-30T01:48:14.091Z,16.10
2022-07-30T01:50:44.352Z,16.20
2022-07-30T01:53:15.801Z,16.20
2022-07-30T01:55:44.103Z,16.30
2022-07-30T01:58:12.771Z,16.30
2022-07-30T02:00:43.709Z,16.30
2022-07-30T02:03:11.572Z,16.30
2022-07-30T02:05:41.109Z,16.20
2022-07-30T02:08:39.158Z,16.20
2022-07-30T02:11:09.212Z,16.20
2022-07-30T02:13:50.709Z,16.20
2022-07-30T02:16:20.048Z,16.20
2022-07-30T02:18:58.549Z,16.30
2022-07-30T02:21:32.148Z,16.30
2022-07-30T02:24:12.486Z,16.40
2022-07-30T02:26:43.219Z,16.40
2022-07-30T02:29:11.725Z,16.50
2022-07-30T02:31:41.198Z,16.40
2022-07-30T02:34:09.551Z,16.50
2022-07-30T02:36:37.647Z,16.50
2022-07-30T02:39:06.130Z,16.50
2022-07-30T02:41:37.493Z,16.60
2022-07-30T02:44:05.860Z,16.50
2022-07-30T02:46:41.707Z,16.30
2022-07-30T02:49:36.515Z,16.40
2022-07-30T02:52:05.538Z,16.40
2022-07-30T02:54:33.239Z,16.50
2022-07-30T02:57:02.336Z,16.50
2022-07-30T02:59:32.142Z,16.60
2022-07-30T03:02:00.693Z,16.60
2022-07-30T03:04:30.147Z,16.60
2022-07-30T03:06:58.232Z,16.50
2022-07-30T03:09:26.724Z,16.60
2022-07-30T03:12:14.618Z,16.60
2022-07-30T03:14:42.433Z,16.60
2022-07-30T03:17:11.966Z,16.60
2022-07-30T03:19:39.893Z,16.60
2022-07-30T03:22:08.202Z,16.70
2022-07-30T03:24:36.821Z,16.70
2022-07-30T03:27:04.800Z,16.70
2022-07-30T03:29:33.072Z,16.70
2022-07-30T03:32:01.246Z,16.70
2022-07-30T03:34:29.219Z,16.70
2022-07-30T03:36:58.300Z,16.70
2022-07-30T03:39:28.420Z,16.70
2022-07-30T03:41:56.545Z,16.60
2022-07-30T03:44:25.609Z,16.60
2022-07-30T03:46:54.173Z,16.60
2022-07-30T03:49:23.504Z,16.60
2022-07-30T03:51:52.766Z,16.60
2022-07-30T03:54:21.080Z,16.60
2022-07-30T03:57:15.301Z,16.60
2022-07-30T03:59:48.782Z,16.60
2022-07-30T04:02:18.125Z,16.60
2022-07-30T04:04:58.793Z,16.60
2022-07-30T04:07:26.435Z,16.60
2022-07-30T04:09:54.271Z,16.60
2022-07-30T04:12:50.736Z,16.70
2022-07-30T04:16:34.294Z,16.70
2022-07-30T04:18:06.812Z,16.70
2022-07-30T04:20:40.842Z,16.70
2022-07-30T04:23:10.148Z,16.80
2022-07-30T04:25:38.889Z,16.80
2022-07-30T04:28:06.967Z,16.80
2022-07-30T04:30:37.511Z,16.80
2022-07-30T04:33:05.503Z,16.80
2022-07-30T04:35:59.299Z,16.80
2022-07-30T04:38:32.591Z,16.90
2022-07-30T04:41:01.046Z,16.90
2022-07-30T04:43:33.475Z,16.90
2022-07-30T04:46:01.406Z,17.00
2022-07-30T04:48:30.873Z,17.00
2022-07-30T04:51:15.606Z,17.10
2022-07-30T04:53:43.274Z,17.20
2022-07-30T04:56:12.982Z,17.20
2022-07-30T04:58:41.986Z,17.20
2022-07-30T05:01:11.147Z,17.20
2022-07-30T05:03:40.619Z,17.20
2022-07-30T05:06:08.650Z,17.20
2022-07-30T05:08:39.247Z,17.30
2022-07-30T05:11:13.678Z,17.40
2022-07-30T05:13:43.006Z,17.50
2022-07-30T05:16:15.317Z,17.50
2022-07-30T05:18:43.251Z,17.70
2022-07-30T05:21:11.814Z,17.70
2022-07-30T05:23:50.578Z,17.90
2022-07-30T05:26:33.774Z,18.00
2022-07-30T05:29:03.933Z,18.20
2022-07-30T05:31:45.578Z,18.30
2022-07-30T05:34:13.733Z,18.40
2022-07-30T05:36:45.407Z,18.50
2022-07-30T05:39:16.764Z,18.50
2022-07-30T05:42:10.539Z,18.50
2022-07-30T05:44:43.703Z,18.50
2022-07-30T05:47:11.741Z,18.60
2022-07-30T05:49:41.010Z,18.60
2022-07-30T05:52:14.137Z,18.60
2022-07-30T05:54:42.438Z,18.70
2022-07-30T05:57:13.066Z,18.60
2022-07-30T05:59:41.301Z,18.60
2022-07-30T06:02:10.427Z,18.70
2022-07-30T06:04:58.349Z,18.90
2022-07-30T06:07:26.033Z,18.90
2022-07-30T06:10:00.468Z,19.00
2022-07-30T06:12:29.838Z,19.00
2022-07-30T06:14:58.547Z,19.10
2022-07-30T06:17:39.761Z,19.20
2022-07-30T06:20:32.423Z,19.30
2022-07-30T06:23:12.551Z,19.30
2022-07-30T06:26:06.553Z,19.30
2022-07-30T06:28:38.011Z,19.30
2022-07-30T06:31:10.997Z,19.50
2022-07-30T06:33:38.709Z,19.50
2022-07-30T06:36:06.317Z,19.60
2022-07-30T06:38:44.823Z,19.60
2022-07-30T06:41:15.986Z,19.60
2022-07-30T06:43:52.090Z,19.60
2022-07-30T06:46:51.722Z,19.80
2022-07-30T06:49:23.155Z,19.90
2022-07-30T06:51:51.105Z,20.00
2022-07-30T06:54:19.209Z,20.10
2022-07-30T06:57:06.802Z,20.20
2022-07-30T06:59:56.113Z,20.30
2022-07-30T07:02:36.444Z,20.40
2022-07-30T07:05:12.977Z,20.70
2022-07-30T07:07:57.885Z,20.80
2022-07-30T07:10:29.382Z,20.80
2022-07-30T07:13:11.678Z,20.70
2022-07-30T07:15:39.398Z,20.60
2022-07-30T07:18:13.315Z,20.70
2022-07-30T07:20:46.967Z,20.50
2022-07-30T07:23:14.740Z,20.50
2022-07-30T07:25:43.285Z,20.50
2022-07-30T07:28:13.391Z,20.50
2022-07-30T07:30:44.685Z,20.50
2022-07-30T07:33:15.715Z,20.40
2022-07-30T07:35:49.676Z,20.40
2022-07-30T07:38:28.769Z,20.40
2022-07-30T07:40:56.729Z,20.30
2022-07-30T07:43:25.412Z,20.30
2022-07-30T07:45:56.096Z,20.30
2022-07-30T07:48:24.517Z,20.30
2022-07-30T07:51:12.672Z,20.30
2022-07-30T07:53:41.007Z,20.50
2022-07-30T07:56:09.181Z,20.40
2022-07-30T07:58:38.266Z,20.30
2022-07-30T08:01:10.798Z,20.40
2022-07-30T08:04:01.917Z,20.20
2022-07-30T08:07:07.556Z,19.40
2022-07-30T08:09:58.253Z,19.20
2022-07-30T08:12:45.872Z,19.10
2022-07-30T08:15:32.842Z,19.30
2022-07-30T08:18:12.880Z,19.40
2022-07-30T08:20:47.117Z,19.20
2022-07-30T08:23:22.470Z,18.90
2022-07-30T08:25:50.544Z,19.20
2022-07-30T08:28:35.241Z,19.50
2022-07-30T08:31:04.456Z,19.60
2022-07-30T08:33:32.375Z,19.70
2022-07-30T08:36:03.111Z,20.00
2022-07-30T08:38:33.536Z,20.30
2022-07-30T08:41:01.641Z,20.70
2022-07-30T08:43:29.935Z,21.00
2022-07-30T08:45:59.437Z,20.30
2022-07-30T08:48:43.521Z,20.20
2022-07-30T08:51:15.507Z,20.20
2022-07-30T08:54:03.659Z,20.40
2022-07-30T08:56:32.714Z,20.20
2022-07-30T08:59:01.758Z,20.30
2022-07-30T09:01:29.553Z,20.40
2022-07-30T09:03:57.950Z,20.50
2022-07-30T09:06:28.800Z,20.70
2022-07-30T09:08:56.664Z,20.90
2022-07-30T09:11:25.180Z,20.90
2022-07-30T09:13:52.922Z,21.00
2022-07-30T09:16:25.146Z,21.10
2022-07-30T09:18:55.904Z,21.00
2022-07-30T09:21:26.126Z,21.20
2022-07-30T09:24:13.080Z,20.90
2022-07-30T09:26:59.448Z,21.10
2022-07-30T09:29:56.710Z,21.30
2022-07-30T09:32:57.823Z,21.60
2022-07-30T09:35:57.580Z,22.20
2022-07-30T09:38:43.744Z,22.80
2022-07-30T09:41:39.369Z,23.20
2022-07-30T09:44:23.277Z,23.10
2022-07-30T09:46:54.014Z,23.20
2022-07-30T09:49:33.770Z,22.60
2022-07-30T09:52:01.544Z,22.60
2022-07-30T09:54:51.357Z,22.50
2022-07-30T09:57:27.206Z,22.40
2022-07-30T10:00:23.502Z,22.30
2022-07-30T10:03:21.561Z,22.10
2022-07-30T10:06:19.484Z,21.80
2022-07-30T10:08:52.004Z,21.70
2022-07-30T10:11:24.746Z,21.80
2022-07-30T10:13:59.948Z,22.10
2022-07-30T10:16:29.467Z,22.10
2022-07-30T10:19:00.513Z,22.30
2022-07-30T10:21:46.983Z,22.30
2022-07-30T10:24:35.547Z,21.80
2022-07-30T10:27:32.200Z,21.50
2022-07-30T10:30:17.480Z,21.20
2022-07-30T10:32:47.122Z,20.90
2022-07-30T10:35:34.652Z,20.80
2022-07-30T10:38:13.501Z,20.80
2022-07-30T10:40:54.240Z,20.80
2022-07-30T10:43:54.070Z,20.70
2022-07-30T10:46:27.158Z,20.70
2022-07-30T10:48:56.073Z,20.40
2022-07-30T10:51:46.593Z,20.20
2022-07-30T10:54:33.060Z,20.00
2022-07-30T10:57:04.747Z,19.80
2022-07-30T10:59:51.503Z,19.70
2022-07-30T11:02:20.558Z,19.50
2022-07-30T11:04:50.814Z,19.30
2022-07-30T11:07:21.521Z,19.30
2022-07-30T11:10:04.306Z,19.30
2022-07-30T11:12:44.032Z,19.30
2022-07-30T11:15:19.230Z,19.40
2022-07-30T11:18:12.089Z,19.20
2022-07-30T11:20:41.476Z,19.10
2022-07-30T11:23:19.238Z,19.00
2022-07-30T11:25:51.066Z,18.90
2022-07-30T11:28:36.147Z,19.00
2022-07-30T11:31:10.102Z,18.90
2022-07-30T11:33:39.049Z,18.80
2022-07-30T11:36:07.901Z,18.80
2022-07-30T11:39:08.340Z,18.90
2022-07-30T11:41:36.318Z,18.90
2022-07-30T11:44:22.873Z,18.70
2022-07-30T11:46:50.941Z,18.70
2022-07-30T11:49:19.907Z,18.60
2022-07-30T11:51:48.191Z,18.50
2022-07-30T11:54:16.097Z,18.50
2022-07-30T11:56:52.170Z,18.50
2022-07-30T11:59:20.209Z,18.60
2022-07-30T12:01:52.255Z,18.60
2022-07-30T12:04:20.038Z,18.50
2022-07-30T12:06:48.611Z,18.50
2022-07-30T12:09:29.322Z,18.50
2022-07-30T12:11:57.731Z,18.50
2022-07-30T12:14:25.630Z,18.50
2022-07-30T12:16:54.347Z,18.50
2022-07-30T12:19:22.015Z,18.50
2022-07-30T12:21:53.290Z,18.50
2022-07-30T12:24:25.370Z,18.60
2022-07-30T12:26:53.367Z,18.60
2022-07-30T12:29:21.842Z,18.80
2022-07-30T12:31:49.839Z,18.90
2022-07-30T12:34:24.698Z,18.80
2022-07-30T12:36:54.356Z,18.80
2022-07-30T12:39:26.285Z,18.80
2022-07-30T12:41:56.555Z,18.90
2022-07-30T12:44:41.402Z,19.00
2022-07-30T12:47:24.290Z,19.10
2022-07-30T12:50:00.799Z,19.20
2022-07-30T12:52:42.507Z,19.30
2022-07-30T12:55:11.784Z,19.40
2022-07-30T12:58:12.336Z,19.60
2022-07-30T13:00:47.255Z,19.70
2022-07-30T13:03:28.073Z,19.80
2022-07-30T13:05:56.870Z,19.90
2022-07-30T13:08:43.570Z,20.00
2022-07-30T13:11:11.652Z,19.80
2022-07-30T13:13:40.243Z,20.00
2022-07-30T13:16:08.252Z,20.30
2022-07-30T13:18:37.071Z,20.20
2022-07-30T13:21:05.695Z,20.30
2022-07-30T13:23:33.458Z,20.90
2022-07-30T13:26:01.451Z,21.40
2022-07-30T13:28:29.511Z,21.60
2022-07-30T13:30:57.504Z,21.60
2022-07-30T13:33:25.313Z,21.80
2022-07-30T13:35:53.021Z,21.90
2022-07-30T13:38:20.944Z,21.90
2022-07-30T13:40:48.722Z,21.80
2022-07-30T13:43:16.411Z,22.00
2022-07-30T13:45:44.372Z,22.20
2022-07-30T13:48:12.455Z,21.90
2022-07-30T13:50:40.873Z,21.80
2022-07-30T13:53:09.358Z,21.80
2022-07-30T13:55:37.770Z,21.60
2022-07-30T13:58:07.163Z,21.50
2022-07-30T14:00:36.970Z,21.50
2022-07-30T14:03:07.275Z,21.40
2022-07-30T14:05:42.116Z,21.10
2022-07-30T14:08:11.401Z,21.00
2022-07-30T14:10:40.372Z,21.00
2022-07-30T14:13:10.369Z,20.80
2022-07-30T14:15:47.194Z,20.70
2022-07-30T14:18:14.770Z,20.20
2022-07-30T14:20:45.620Z,19.80
2022-07-30T14:23:17.159Z,19.90
2022-07-30T14:25:45.411Z,20.00
2022-07-30T14:28:13.090Z,20.10
2022-07-30T14:30:40.992Z,20.10
2022-07-30T14:33:09.351Z,20.20
2022-07-30T14:35:37.172Z,20.30
2022-07-30T14:38:07.849Z,20.30
2022-07-30T14:40:35.984Z,20.50
2022-07-30T14:43:03.789Z,20.80
2022-07-30T14:45:34.519Z,21.10
2022-07-30T14:48:02.510Z,21.50
2022-07-30T14:50:30.117Z,21.50
2022-07-30T14:52:57.847Z,21.30
2022-07-30T14:55:25.578Z,21.30
2022-07-30T14:57:53.578Z,21.50
2022-07-30T15:00:21.623Z,21.50
2022-07-30T15:02:52.484Z,21.40
2022-07-30T15:05:20.135Z,21.30
2022-07-30T15:07:47.931Z,21.60
2022-07-30T15:10:16.213Z,21.90
2022-07-30T15:12:43.730Z,22.20
2022-07-30T15:15:12.368Z,22.30
2022-07-30T15:17:42.486Z,22.00
2022-07-30T15:20:11.131Z,22.10
2022-07-30T15:22:38.782Z,21.90
2022-07-30T15:25:06.998Z,21.70
2022-07-30T15:27:34.819Z,21.40
2022-07-30T15:30:02.943Z,21.40
2022-07-30T15:32:30.764Z,21.40
2022-07-30T15:34:59.066Z,21.40
2022-07-30T15:37:26.865Z,21.50
2022-07-30T15:39:54.393Z,21.50
2022-07-30T15:42:22.478Z,21.20
2022-07-30T15:45:14.226Z,21.10
2022-07-30T15:47:38.250Z,20.90
2022-07-30T15:50:06.110Z,21.10
2022-07-30T15:52:36.021Z,20.80
2022-07-30T15:55:04.890Z,20.60
2022-07-30T15:57:32.478Z,20.40
2022-07-30T16:00:00.236Z,20.20
2022-07-30T16:02:28.124Z,20.20
2022-07-30T16:04:55.690Z,20.10
2022-07-30T16:07:23.298Z,19.80
2022-07-30T16:09:51.222Z,19.90
2022-07-30T16:12:18.943Z,19.90
2022-07-30T16:14:47.000Z,19.60
2022-07-30T16:17:15.529Z,19.60
2022-07-30T16:19:44.937Z,19.60
2022-07-30T16:22:14.930Z,19.60
2022-07-30T16:24:46.426Z,19.40
2022-07-30T16:27:15.311Z,19.30
2022-07-30T16:29:43.034Z,19.10
2022-07-30T16:32:10.992Z,19.00
2022-07-30T16:34:38.616Z,19.10
2022-07-30T16:37:06.129Z,19.00
2022-07-30T16:39:34.115Z,19.00
2022-07-30T16:42:01.954Z,19.10
2022-07-30T16:44:34.211Z,19.00
2022-07-30T16:47:01.884Z,19.00
2022-07-30T16:49:30.453Z,19.10
2022-07-30T16:51:58.535Z,19.00
2022-07-30T16:54:26.198Z,18.90
2022-07-30T16:56:53.680Z,19.00
2022-07-30T16:59:21.552Z,18.80
2022-07-30T17:01:49.646Z,18.70
2022-07-30T17:04:18.096Z,18.50
2022-07-30T17:06:45.723Z,18.50
2022-07-30T17:09:16.067Z,18.50
2022-07-30T17:11:47.177Z,18.40
2022-07-30T17:14:21.481Z,18.40
2022-07-30T17:16:49.248Z,18.40
2022-07-30T17:19:16.911Z,18.30
2022-07-30T17:21:44.645Z,18.20
2022-07-30T17:24:14.149Z,18.30
2022-07-30T17:26:43.675Z,18.20
2022-07-30T17:29:14.433Z,18.30
2022-07-30T17:31:44.600Z,18.20
2022-07-30T17:34:14.141Z,18.10
2022-07-30T17:36:42.872Z,18.10
2022-07-30T17:40:24.736Z,18.00
2022-07-30T17:42:08.690Z,17.90
2022-07-30T17:44:36.998Z,17.90
2022-07-30T17:47:05.071Z,18.00
2022-07-30T17:49:33.175Z,17.80
2022-07-30T17:52:01.122Z,17.90
2022-07-30T17:54:29.294Z,17.80
2022-07-30T17:56:57.310Z,17.80
2022-07-30T17:59:25.259Z,17.70
2022-07-30T18:01:53.143Z,17.70
2022-07-30T18:04:20.791Z,17.60
2022-07-30T18:06:49.457Z,17.50
2022-07-30T18:09:17.295Z,17.50
2022-07-30T18:11:45.347Z,17.60
2022-07-30T18:14:12.959Z,17.60
2022-07-30T18:16:40.922Z,17.60
2022-07-30T18:19:08.525Z,17.60
2022-07-30T18:21:51.007Z,17.50
2022-07-30T18:24:19.072Z,17.40
2022-07-30T18:26:47.148Z,17.30
2022-07-30T18:29:14.806Z,17.20
2022-07-30T18:31:42.502Z,17.10
2022-07-30T18:34:10.304Z,17.10
2022-07-30T18:36:37.888Z,17.10
2022-07-30T18:39:05.768Z,17.00
2022-07-30T18:41:33.653Z,17.00
2022-07-30T18:44:01.606Z,17.00
2022-07-30T18:46:29.225Z,16.90
2022-07-30T18:48:57.984Z,16.80
2022-07-30T18:51:25.862Z,16.80
2022-07-30T18:53:54.065Z,16.80
2022-07-30T18:56:21.640Z,16.70
2022-07-30T18:58:49.654Z,16.70
2022-07-30T19:01:19.002Z,16.70
2022-07-30T19:03:47.352Z,16.70
2022-07-30T19:06:16.644Z,16.60
2022-07-30T19:08:47.701Z,16.50
2022-07-30T19:11:15.688Z,16.60
2022-07-30T19:13:43.399Z,16.70
2022-07-30T19:16:11.498Z,16.70
2022-07-30T19:18:40.443Z,16.60
2022-07-30T19:21:11.178Z,16.70
2022-07-30T19:23:41.926Z,16.70
2022-07-30T19:26:10.087Z,16.80
2022-07-30T19:28:38.260Z,16.80
2022-07-30T19:31:06.185Z,16.70
2022-07-30T19:33:33.837Z,16.70
2022-07-30T19:36:03.298Z,16.70
2022-07-30T19:38:31.094Z,16.80
2022-07-30T19:41:00.015Z,16.80
2022-07-30T19:43:28.583Z,16.80
2022-07-30T19:45:58.478Z,16.80
2022-07-30T19:48:29.003Z,16.70
2022-07-30T19:50:59.002Z,16.70
2022-07-30T19:53:27.964Z,16.70
2022-07-30T19:56:02.180Z,16.70
2022-07-30T19:58:31.404Z,16.70
2022-07-30T20:01:00.463Z,16.60
2022-07-30T20:03:31.511Z,16.60
2022-07-30T20:06:00.219Z,16.60
2022-07-30T20:08:28.669Z,16.40
2022-07-30T20:10:57.843Z,16.50
2022-07-30T20:13:44.169Z,16.50
2022-07-30T20:16:13.928Z,16.50
2022-07-30T20:18:42.286Z,16.60
2022-07-30T20:21:15.187Z,16.60
2022-07-30T20:23:44.306Z,16.70
2022-07-30T20:26:14.564Z,16.70
2022-07-30T20:28:43.525Z,16.70
2022-07-30T20:31:13.575Z,16.80
2022-07-30T20:33:41.583Z,16.80
2022-07-30T20:36:10.149Z,16.70
2022-07-30T20:38:39.011Z,16.60
2022-07-30T20:41:10.090Z,16.60
2022-07-30T20:43:51.581Z,16.50
2022-07-30T20:46:20.634Z,16.60
2022-07-30T20:48:54.489Z,16.50
2022-07-30T20:51:33.504Z,16.50
2022-07-30T20:54:01.591Z,16.60
2022-07-30T20:56:29.477Z,16.60
2022-07-30T20:58:57.833Z,16.60
2022-07-30T21:01:28.668Z,16.70
2022-07-30T21:03:58.704Z,16.70
2022-07-30T21:06:26.772Z,16.70
2022-07-30T21:08:56.568Z,16.70
2022-07-30T21:11:24.379Z,16.80
2022-07-30T21:13:53.366Z,16.80
2022-07-30T21:16:23.883Z,16.80
2022-07-30T21:18:51.729Z,16.80
2022-07-30T21:21:30.511Z,16.80
2022-07-30T21:24:11.513Z,16.80
2022-07-30T21:26:42.487Z,16.80
2022-07-30T21:29:11.165Z,16.70
2022-07-30T21:32:01.484Z,16.70
2022-07-30T21:34:28.892Z,16.70
2022-07-30T21:36:58.619Z,16.60
2022-07-30T21:39:28.868Z,16.70
2022-07-30T21:41:57.282Z,16.60
2022-07-30T21:44:24.780Z,16.60
2022-07-30T21:46:52.865Z,16.60
2022-07-30T21:49:21.628Z,16.60
2022-07-30T21:51:49.053Z,16.60
2022-07-30T21:54:19.349Z,16.60
2022-07-30T21:56:58.366Z,16.60
2022-07-30T21:59:27.652Z,16.60
2022-07-30T22:01:55.839Z,16.50
2022-07-30T22:04:23.852Z,16.50
2022-07-30T22:06:54.673Z,16.60
2022-07-30T22:09:33.333Z,16.60
2022-07-30T22:12:06.343Z,16.60
2022-07-30T22:14:37.861Z,16.60
2022-07-30T22:17:06.073Z,16.50
2022-07-30T22:19:50.798Z,16.50
2022-07-30T22:22:27.368Z,16.60
2022-07-30T22:24:58.133Z,16.50
2022-07-30T22:27:28.311Z,16.60
2022-07-30T22:30:09.427Z,16.60
2022-07-30T22:32:37.270Z,16.50
2022-07-30T22:35:07.013Z,16.50
2022-07-30T22:37:34.652Z,16.60
2022-07-30T22:40:06.683Z,16.60
2022-07-30T22:42:36.635Z,16.50
2022-07-30T22:45:47.208Z,16.40
2022-07-30T22:48:10.214Z,16.40
2022-07-30T22:50:40.113Z,16.40
2022-07-30T22:53:56.884Z,16.50
2022-07-30T22:55:56.462Z,16.50
2022-07-30T22:58:26.322Z,16.50
2022-07-30T23:00:54.447Z,16.50
2022-07-30T23:03:21.987Z,16.50
2022-07-30T23:05:56.174Z,16.50
2022-07-30T23:08:29.859Z,16.50
2022-07-30T23:10:59.993Z,16.40
2022-07-30T23:13:27.974Z,16.30
2022-07-30T23:15:55.596Z,16.20
2022-07-30T23:18:23.057Z,16.30
2022-07-30T23:20:50.836Z,16.20
2022-07-30T23:23:18.338Z,16.20
2022-07-30T23:25:46.090Z,16.20
2022-07-30T23:28:13.637Z,16.20
2022-07-30T23:30:41.327Z,16.20
2022-07-30T23:33:08.860Z,16.20
2022-07-30T23:35:36.349Z,16.20
2022-07-30T23:38:04.193Z,16.30
2022-07-30T23:40:31.776Z,16.30
2022-07-30T23:42:59.451Z,16.30
2022-07-30T23:45:27.021Z,16.30
2022-07-30T23:48:02.386Z,16.30
2022-07-30T23:50:31.799Z,16.30
2022-07-30T23:52:59.458Z,16.40
2022-07-30T23:55:27.436Z,16.40
2022-07-30T23:57:55.066Z,16.30
